Time;durP1;ratioP1;P1;durP2;ratioP2;P2;SDS_P1;SDS_P2;PMS_P1;PMS_P2;Temp;Humidity;BMP_temperature;BMP_pressure;BME280_temperature;BME280_humidity;BME280_pressure;Samples;Min_cycle;Max_cycle;Signal;HPM_P1;HPM_P2
2022/03/21 00:01:17;;;;;;;64.10;30.23;;;;;;;-1.23;88.81;102827.72;4931427;29;20481;-82
2022/03/21 00:03:44;;;;;;;59.17;29.52;;;;;;;-1.30;88.59;102824.78;4926720;29;20035;-81
2022/03/21 00:06:09;;;;;;;61.17;29.33;;;;;;;-1.34;88.72;102819.91;4925212;29;20031;-82
2022/03/21 00:08:35;;;;;;;63.40;30.38;;;;;;;-1.45;88.47;102821.63;4932884;29;20032;-81
2022/03/21 00:11:01;;;;;;;63.43;30.27;;;;;;;-1.54;89.21;102822.41;4934406;29;20028;-81
2022/03/21 00:13:27;;;;;;;58.25;27.55;;;;;;;-1.61;89.41;102821.25;4932742;29;20173;-83
2022/03/21 00:15:53;;;;;;;61.28;28.88;;;;;;;-1.64;89.71;102838.13;4933618;29;20115;-82
2022/03/21 00:18:20;;;;;;;61.90;29.47;;;;;;;-1.66;89.80;102832.16;4939146;29;20088;-82
2022/03/21 00:20:47;;;;;;;64.67;29.00;;;;;;;-1.72;90.05;102832.63;4939324;29;20295;-82
2022/03/21 00:23:13;;;;;;;60.42;29.13;;;;;;;-1.77;90.34;102830.41;4933333;29;20044;-82
2022/03/21 00:25:39;;;;;;;66.82;29.75;;;;;;;-1.81;90.52;102828.97;4934280;29;20027;-83
2022/03/21 00:28:07;;;;;;;64.95;30.63;;;;;;;-1.81;90.28;102839.50;4934579;29;20447;-83
2022/03/21 00:30:34;;;;;;;61.53;28.85;;;;;;;-1.80;90.35;102837.72;4934343;29;20040;-82
2022/03/21 00:32:59;;;;;;;57.65;29.55;;;;;;;-1.78;90.59;102830.53;4934469;29;20507;-81
2022/03/21 00:35:25;;;;;;;64.53;30.00;;;;;;;-1.83;90.49;102844.06;4934043;29;20036;-83
2022/03/21 00:37:51;;;;;;;60.10;28.30;;;;;;;-1.88;90.10;102839.16;4934578;29;20032;-82
2022/03/21 00:40:17;;;;;;;64.40;30.60;;;;;;;-1.94;90.76;102838.84;4932230;29;20082;-82
2022/03/21 00:42:44;;;;;;;59.72;29.00;;;;;;;-2.01;90.47;102846.38;4923743;29;20057;-82
2022/03/21 00:45:12;;;;;;;70.90;30.98;;;;;;;-2.01;91.00;102849.00;4926932;29;20035;-82
2022/03/21 00:47:39;;;;;;;63.47;29.88;;;;;;;-2.05;91.07;102842.31;4928272;29;20098;-82
2022/03/21 00:50:06;;;;;;;63.38;30.65;;;;;;;-2.12;90.84;102839.38;4935127;29;20549;-82
2022/03/21 00:52:37;;;;;;;65.70;30.08;;;;;;;-2.18;90.40;102852.97;4933059;29;20395;-82
2022/03/21 00:55:03;;;;;;;64.78;29.90;;;;;;;-2.23;91.14;102848.09;4931293;29;20046;-82
2022/03/21 00:57:28;;;;;;;66.40;31.37;;;;;;;-2.25;91.68;102847.38;4933851;29;20035;-82
2022/03/21 00:59:54;;;;;;;67.37;30.50;;;;;;;-2.25;92.66;102857.06;4917447;29;20396;-82
2022/03/21 01:02:19;;;;;;;69.43;30.80;;;;;;;-2.29;92.32;102846.81;4933117;29;20392;-83
2022/03/21 01:04:44;;;;;;;64.17;30.17;;;;;;;-2.30;92.83;102855.66;4932150;29;20032;-81
2022/03/21 01:07:09;;;;;;;69.87;31.90;;;;;;;-2.29;93.36;102857.31;4920701;29;20028;-82
2022/03/21 01:09:35;;;;;;;80.03;33.73;;;;;;;-2.33;93.19;102855.88;4935120;29;20494;-81
2022/03/21 01:12:03;;;;;;;71.87;32.37;;;;;;;-2.35;93.23;102870.94;4932860;29;20054;-82
2022/03/21 01:14:30;;;;;;;85.25;34.60;;;;;;;-2.38;93.04;102865.94;4931032;29;20032;-82
2022/03/21 01:16:57;;;;;;;84.95;36.20;;;;;;;-2.36;92.83;102866.63;4933710;29;20032;-82
2022/03/21 01:19:23;;;;;;;73.72;32.03;;;;;;;-2.33;93.09;102861.13;4932840;29;20032;-81
2022/03/21 01:21:48;;;;;;;75.43;33.80;;;;;;;-2.37;92.73;102859.69;4926420;29;20038;-81
2022/03/21 01:24:13;;;;;;;73.13;33.28;;;;;;;-2.39;92.50;102868.66;4927300;29;20045;-81
2022/03/21 01:26:39;;;;;;;67.60;32.43;;;;;;;-2.44;92.98;102869.03;4932071;29;20042;-81
2022/03/21 01:29:04;;;;;;;72.70;32.50;;;;;;;-2.47;92.98;102869.28;4933900;29;20043;-82
2022/03/21 01:31:29;;;;;;;75.83;32.40;;;;;;;-2.49;92.99;102861.53;4932961;29;20054;-82
2022/03/21 01:33:55;;;;;;;74.40;32.67;;;;;;;-2.48;93.73;102871.09;4930031;29;20032;-81
2022/03/21 01:36:21;;;;;;;76.43;33.70;;;;;;;-2.41;94.06;102871.44;4925362;29;20035;-81
2022/03/21 01:38:46;;;;;;;70.67;31.60;;;;;;;-2.40;93.59;102865.22;4933538;29;20203;-81
2022/03/21 01:41:11;;;;;;;73.93;31.27;;;;;;;-2.42;93.11;102872.38;4932969;29;20031;-82
2022/03/21 01:43:57;;;;;;;70.70;32.97;;;;;;;-2.47;93.16;102869.28;4916606;29;20051;-82
2022/03/21 01:46:23;;;;;;;72.78;31.70;;;;;;;-2.50;93.18;102861.63;4917462;29;20028;-81
2022/03/21 01:48:48;;;;;;;66.43;30.83;;;;;;;-2.52;92.99;102858.28;4916388;29;20054;-83
2022/03/21 01:51:14;;;;;;;69.17;31.20;;;;;;;-2.55;93.06;102866.41;4926007;29;20054;-83
2022/03/21 01:56:27;;;;;;;72.95;32.35;;;;;;;-2.62;93.28;102861.66;4927174;29;20063;-82
2022/03/21 01:58:53;;;;;;;72.05;30.60;;;;;;;-2.60;93.24;102862.38;4933281;29;20024;-82
2022/03/21 02:01:18;;;;;;;69.55;29.95;;;;;;;-2.60;93.01;102858.91;4924723;29;20504;-82
2022/03/21 02:03:45;;;;;;;69.83;30.87;;;;;;;-2.63;93.55;102867.00;4921621;29;20035;-82
2022/03/21 02:06:11;;;;;;;74.10;32.15;;;;;;;-2.64;93.55;102852.22;4931991;29;20024;-82
2022/03/21 02:08:36;;;;;;;62.53;29.27;;;;;;;-2.65;93.23;102856.63;4931907;29;20071;-82
2022/03/21 02:11:01;;;;;;;66.28;29.85;;;;;;;-2.68;93.12;102859.50;4917817;29;20028;-82
2022/03/21 02:13:28;;;;;;;61.83;28.50;;;;;;;-2.72;93.39;102860.69;4932885;29;20049;-82
2022/03/21 02:15:53;;;;;;;68.72;30.65;;;;;;;-2.75;93.40;102863.56;4932678;29;20032;-82
2022/03/21 02:18:20;;;;;;;66.03;29.87;;;;;;;-2.81;93.45;102861.41;4930598;29;20055;-82
2022/03/21 02:20:47;;;;;;;66.32;29.55;;;;;;;-2.84;93.84;102861.66;4931281;29;20027;-82
2022/03/21 02:23:36;;;;;;;68.95;30.20;;;;;;;-2.84;93.87;102869.50;4931650;29;20063;-82
2022/03/21 02:26:02;;;;;;;69.50;29.90;;;;;;;-2.85;93.49;102883.59;4926149;29;20407;-82
2022/03/21 02:28:29;;;;;;;65.53;29.03;;;;;;;-2.90;93.78;102879.53;4929555;29;20031;-81
2022/03/21 02:30:55;;;;;;;65.22;29.98;;;;;;;-2.93;94.33;102876.31;4927103;29;20032;-81
2022/03/21 02:33:21;;;;;;;69.68;29.83;;;;;;;-2.97;94.45;102873.09;4931874;29;20032;-81
2022/03/21 02:35:49;;;;;;;69.70;29.97;;;;;;;-2.99;94.93;102875.00;4932210;29;20506;-81
2022/03/21 02:38:16;;;;;;;69.13;29.17;;;;;;;-2.99;95.19;102880.25;4918380;29;20028;-82
2022/03/21 02:43:09;;;;;;;65.63;29.52;;;;;;;-2.97;95.05;102877.50;4911973;29;20047;-90
2022/03/21 02:45:41;;;;;;;67.07;29.20;;;;;;;-3.01;95.03;102876.91;4913761;29;20028;-90
2022/03/21 02:48:07;;;;;;;68.80;29.10;;;;;;;-3.03;95.24;102876.16;4891321;29;20041;-90
2022/03/21 02:50:59;;;;;;;66.45;29.52;;;;;;;-3.06;94.87;102876.41;4907604;29;20028;-90
2022/03/21 02:53:27;;;;;;;65.45;28.42;;;;;;;-3.09;95.04;102874.00;4910645;29;20083;-90
2022/03/21 02:55:54;;;;;;;66.05;28.60;;;;;;;-3.13;94.83;102867.34;4912268;29;20547;-91
2022/03/21 02:58:20;;;;;;;67.07;28.63;;;;;;;-3.18;94.69;102864.22;4894579;29;20083;-89
2022/03/21 03:00:45;;;;;;;61.60;28.83;;;;;;;-3.22;94.95;102867.06;4912188;29;20783;-90
2022/03/21 03:03:10;;;;;;;66.33;29.97;;;;;;;-3.26;95.21;102862.19;4913234;29;20027;-90
2022/03/21 03:05:36;;;;;;;75.87;31.50;;;;;;;-3.24;95.55;102861.09;4913208;29;20047;-90
2022/03/21 03:08:03;;;;;;;63.13;28.63;;;;;;;-3.18;95.44;102869.47;4911946;29;20548;-89
2022/03/21 03:10:29;;;;;;;70.50;30.05;;;;;;;-3.18;95.46;102869.47;4905837;29;20029;-89
2022/03/21 03:12:54;;;;;;;66.32;29.70;;;;;;;-3.26;95.40;102863.00;4902011;29;20111;-90
2022/03/21 03:15:19;;;;;;;61.00;28.90;;;;;;;-3.26;95.30;102865.63;4914552;29;20114;-89
2022/03/21 03:17:45;;;;;;;65.57;28.53;;;;;;;-3.38;95.27;102854.28;4919829;29;20028;-90
2022/03/21 03:20:10;;;;;;;63.97;28.27;;;;;;;-3.26;95.65;102875.28;4918194;29;20103;-90
2022/03/21 03:22:37;;;;;;;68.72;31.40;;;;;;;-3.24;95.94;102874.22;4913309;29;20028;-90
2022/03/21 03:25:04;;;;;;;66.15;29.80;;;;;;;-3.27;95.23;102866.56;4915008;29;20031;-90
2022/03/21 03:27:30;;;;;;;63.37;28.10;;;;;;;-3.38;95.02;102861.31;4913159;29;20480;-89
2022/03/21 03:29:56;;;;;;;69.37;29.03;;;;;;;-3.40;95.28;102868.47;4924483;29;20316;-90
2022/03/21 03:32:22;;;;;;;71.90;30.92;;;;;;;-3.41;95.84;102877.28;4925878;29;20036;-89
2022/03/21 03:34:47;;;;;;;66.70;30.00;;;;;;;-3.40;95.75;102879.78;4910528;29;20035;-90
2022/03/21 03:37:13;;;;;;;72.68;29.55;;;;;;;-3.46;95.58;102869.75;4923515;29;20040;-89
2022/03/21 03:39:38;;;;;;;69.53;30.73;;;;;;;-3.45;95.33;102879.28;4921888;29;20023;-90
2022/03/21 03:42:04;;;;;;;70.73;30.53;;;;;;;-3.42;95.90;102886.09;4922948;29;20064;-89
2022/03/21 03:44:29;;;;;;;66.63;29.07;;;;;;;-3.47;96.18;102875.94;4920395;29;20331;-90
2022/03/21 03:46:55;;;;;;;71.93;31.00;;;;;;;-3.43;96.25;102879.16;4922809;29;20024;-90
2022/03/21 03:49:38;;;;;;;69.97;30.00;;;;;;;-3.46;96.27;102869.75;4914048;29;20122;-89
2022/03/21 03:52:04;;;;;;;69.10;29.88;;;;;;;-3.42;95.83;102879.06;4913048;29;20087;-90
2022/03/21 03:54:29;;;;;;;73.33;31.03;;;;;;;-3.49;95.85;102888.31;4913357;29;20079;-89
2022/03/21 03:57:04;;;;;;;72.30;32.70;;;;;;;-3.58;96.06;102884.59;4914111;29;20115;-89
2022/03/21 03:59:41;;;;;;;69.40;31.70;;;;;;;-3.53;96.46;102887.72;4909176;29;20028;-90
2022/03/21 04:02:09;;;;;;;81.35;31.92;;;;;;;-3.48;96.40;102900.50;4912921;29;20038;-90
2022/03/21 04:04:35;;;;;;;74.00;30.95;;;;;;;-3.51;96.32;102900.72;4900167;29;20028;-90
2022/03/21 04:07:00;;;;;;;65.20;30.03;;;;;;;-3.54;96.30;102893.06;4913245;29;20115;-89
2022/03/21 04:09:26;;;;;;;72.93;30.70;;;;;;;-3.51;96.34;102904.19;4911722;29;20032;-89
2022/03/21 04:11:51;;;;;;;67.40;30.27;;;;;;;-3.57;96.18;102898.56;4914100;29;20385;-90
2022/03/21 04:14:16;;;;;;;69.17;29.53;;;;;;;-3.60;95.87;102896.16;4911568;29;20072;-89
2022/03/21 04:16:44;;;;;;;70.63;31.67;;;;;;;-3.62;96.11;102904.13;4914621;29;20032;-90
2022/03/21 04:19:09;;;;;;;76.13;31.15;;;;;;;-3.62;96.38;102892.81;4911153;29;20472;-89
2022/03/21 04:21:34;;;;;;;79.03;33.13;;;;;;;-3.57;96.59;102894.13;4912936;29;20063;-89
2022/03/21 04:24:47;;;;;;;77.77;32.53;;;;;;;-3.62;96.39;102885.78;4914101;29;20044;-89
2022/03/21 04:27:12;;;;;;;71.85;30.27;;;;;;;-3.62;96.05;102885.78;4877436;29;20040;-90
2022/03/21 04:30:03;;;;;;;76.75;32.08;;;;;;;-3.65;96.10;102888.59;4909058;29;20028;-89
2022/03/21 04:32:50;;;;;;;84.63;32.00;;;;;;;-3.63;96.47;102894.59;4909961;29;20772;-90
2022/03/21 04:35:18;;;;;;;67.13;29.10;;;;;;;-3.69;96.43;102880.16;4911651;29;20367;-90
2022/03/21 04:37:54;;;;;;;79.20;32.75;;;;;;;-3.75;96.00;102877.16;4909206;29;20040;-91
2022/03/21 04:40:19;;;;;;;74.00;30.60;;;;;;;-3.73;96.58;102896.22;4888660;29;20135;-90
2022/03/21 04:45:35;;;;;;;69.85;31.20;;;;;;;-3.84;96.48;102884.75;4911916;29;20439;-90
2022/03/21 04:48:06;;;;;;;74.65;31.15;;;;;;;-3.89;96.82;102884.22;5041538;23;20040;-90
2022/03/21 04:50:38;;;;;;;77.93;31.70;;;;;;;-3.85;96.99;102882.22;4891257;29;20112;-90
2022/03/21 04:59:00;;;;;;;76.00;31.67;;;;;;;-3.83;96.95;102890.81;4898403;29;20068;-89
2022/03/21 05:01:25;;;;;;;79.13;31.80;;;;;;;-3.75;96.65;102903.34;4902737;29;20303;-89
2022/03/21 05:03:58;;;;;;;75.95;32.20;;;;;;;-3.77;96.79;102905.25;4927253;29;20028;-91
2022/03/21 05:06:39;;;;;;;75.73;31.37;;;;;;;-3.82;97.77;102890.69;4923922;29;20039;-90
2022/03/21 05:09:13;;;;;;;74.68;32.17;;;;;;;-3.74;96.93;102907.66;4908048;29;20440;-89
2022/03/21 05:11:40;;;;;;;80.80;34.00;;;;;;;-3.78;97.83;102901.78;4900033;29;20033;-88
2022/03/21 05:14:05;;;;;;;79.65;33.75;;;;;;;-3.69;97.68;102914.22;4906505;29;20083;-88
2022/03/21 05:16:31;;;;;;;78.72;33.85;;;;;;;-3.64;97.91;102916.50;4916803;29;20044;-88
2022/03/21 05:18:56;;;;;;;77.70;31.83;;;;;;;-3.67;97.68;102914.13;4917384;29;20024;-88
2022/03/21 05:21:21;;;;;;;67.30;29.57;;;;;;;-3.71;97.01;102910.03;4902815;29;20059;-89
2022/03/21 05:31:58;;;;;;;75.00;31.92;;;;;;;-3.75;97.47;102916.44;4878863;29;20095;-86
2022/03/21 05:37:08;;;;;;;73.70;30.58;;;;;;;-3.82;97.65;102914.25;4880219;29;20185;-87
2022/03/21 05:39:33;;;;;;;79.37;31.60;;;;;;;-3.80;97.67;102916.78;4894760;29;20391;-86
2022/03/21 05:41:59;;;;;;;76.10;32.03;;;;;;;-3.80;97.77;102920.22;4897616;29;20032;-87
2022/03/21 05:44:24;;;;;;;72.57;30.23;;;;;;;-3.82;98.14;102922.13;4897313;29;20796;-87
2022/03/21 05:46:50;;;;;;;72.43;30.90;;;;;;;-3.85;97.70;102911.03;4901574;29;20132;-88
2022/03/21 05:49:16;;;;;;;67.60;29.63;;;;;;;-3.83;98.04;102917.00;4898878;29;20040;-87
2022/03/21 05:51:42;;;;;;;74.03;31.37;;;;;;;-3.79;98.76;102913.22;4899678;29;20103;-87
2022/03/21 05:54:10;;;;;;;67.40;28.80;;;;;;;-3.80;97.84;102916.78;4896133;29;20033;-87
2022/03/21 05:56:36;;;;;;;76.32;30.30;;;;;;;-3.83;98.17;102915.22;4900924;29;20054;-87
2022/03/21 06:01:51;;;;;;;71.65;30.67;;;;;;;-3.70;98.48;102912.53;4904420;29;20094;-87
2022/03/21 06:04:17;;;;;;;67.17;28.90;;;;;;;-3.68;98.04;102921.13;4915023;29;20033;-88
2022/03/21 06:06:44;;;;;;;71.30;29.63;;;;;;;-3.68;97.94;102915.88;4928576;29;20315;-87
2022/03/21 06:09:09;;;;;;;70.95;31.08;;;;;;;-3.63;98.05;102927.81;4925858;29;20055;-86
2022/03/21 06:11:36;;;;;;;73.70;30.80;;;;;;;-3.59;98.16;102924.88;4920804;29;20031;-86
2022/03/21 06:14:05;;;;;;;71.03;30.35;;;;;;;-3.54;98.26;102933.25;4917287;29;20503;-87
2022/03/21 06:16:33;;;;;;;73.03;31.20;;;;;;;-3.45;98.33;102930.88;4915660;29;20175;-86
2022/03/21 06:19:02;;;;;;;73.57;30.60;;;;;;;-3.39;98.45;102935.69;4912254;29;20028;-87
2022/03/21 06:21:29;;;;;;;74.43;29.80;;;;;;;-3.36;98.02;102940.69;4911394;29;20300;-88
2022/03/21 06:23:54;;;;;;;68.20;29.58;;;;;;;-3.36;97.83;102932.84;4922270;29;20035;-87
2022/03/21 06:26:22;;;;;;;71.80;29.63;;;;;;;-3.32;98.14;102930.81;4904399;29;20041;-88
2022/03/21 06:28:47;;;;;;;71.47;29.98;;;;;;;-3.25;97.92;102948.59;4924741;29;20059;-90
2022/03/21 06:31:13;;;;;;;69.77;31.30;;;;;;;-3.23;98.24;102933.59;4931752;29;20036;-89
2022/03/21 06:33:40;;;;;;;75.82;30.80;;;;;;;-3.12;98.65;102947.72;4920160;29;20088;-89
2022/03/21 06:36:09;;;;;;;70.43;30.58;;;;;;;-3.02;99.06;102947.84;4915717;29;20013;-88
2022/03/21 06:38:35;;;;;;;71.10;30.47;;;;;;;-2.91;98.74;102950.50;4911811;29;20067;-87
2022/03/21 06:41:01;;;;;;;74.67;31.87;;;;;;;-2.81;98.42;102956.72;4907662;29;20629;-86
2022/03/21 06:43:27;;;;;;;68.15;31.38;;;;;;;-2.72;98.73;102952.53;4908371;29;20043;-87
2022/03/21 06:48:28;;;;;;;75.15;33.08;;;;;;;-2.50;98.72;102964.88;5004448;23;20465;-87
2022/03/21 06:50:55;;;;;;;69.43;29.53;;;;;;;-2.38;98.20;102968.34;4948394;29;20027;-87
2022/03/21 06:53:21;;;;;;;69.80;31.35;;;;;;;-2.33;97.97;102968.81;4938516;29;20031;-87
2022/03/21 06:55:46;;;;;;;72.82;31.67;;;;;;;-2.26;97.55;102969.16;4937928;29;20463;-88
2022/03/21 06:58:13;;;;;;;75.37;32.43;;;;;;;-2.18;97.80;102964.16;4940853;29;20058;-88
2022/03/21 07:00:43;;;;;;;68.93;31.50;;;;;;;-2.08;98.40;102972.16;4944390;29;20023;-87
2022/03/21 07:03:08;;;;;;;71.68;31.65;;;;;;;-2.02;98.01;102968.22;4944378;29;20047;-86
2022/03/21 07:05:35;;;;;;;76.93;34.23;;;;;;;-1.91;98.33;102975.25;4945572;29;20440;-86
2022/03/21 07:08:01;;;;;;;74.38;34.05;;;;;;;-1.86;98.65;102973.91;4937141;29;20083;-85
2022/03/21 07:10:27;;;;;;;81.50;35.90;;;;;;;-1.80;98.97;102983.09;4924862;29;20032;-87
2022/03/21 07:12:52;;;;;;;74.90;33.80;;;;;;;-1.73;99.41;102973.78;4935032;29;20035;-89
2022/03/21 07:15:18;;;;;;;82.53;35.15;;;;;;;-1.61;99.52;102989.53;4936199;29;20443;-87
2022/03/21 07:17:43;;;;;;;79.60;33.93;;;;;;;-1.51;99.86;102982.56;4918509;29;20538;-87
2022/03/21 07:20:15;;;;;;;92.57;36.93;;;;;;;-1.45;100.00;102975.97;4940273;29;20052;-87
2022/03/21 08:50:20;;;;;;;38.33;18.40;;;;;;;5.32;90.55;103003.63;5460622;23;20054;-89
2022/03/21 08:52:46;;;;;;;41.73;19.67;;;;;;;5.46;91.09;103007.44;4937306;29;20059;-87
2022/03/21 08:55:12;;;;;;;44.13;20.35;;;;;;;5.55;90.57;103009.06;4935272;29;20125;-89
2022/03/21 08:57:38;;;;;;;41.08;20.05;;;;;;;5.64;90.75;103003.72;4938662;29;20083;-89
2022/03/21 09:00:05;;;;;;;37.33;18.23;;;;;;;5.79;89.88;103007.31;4947171;29;20028;-86
2022/03/21 09:02:31;;;;;;;40.95;18.05;;;;;;;5.94;89.18;102996.78;4935546;29;20114;-87
2022/03/21 09:05:04;;;;;;;36.55;18.20;;;;;;;6.15;87.14;103008.69;4975693;28;20015;-94
2022/03/21 09:07:29;;;;;;;38.17;18.00;;;;;;;6.25;88.21;102993.34;4957159;28;20118;-91
2022/03/21 09:09:54;;;;;;;40.80;17.70;;;;;;;6.56;87.73;103003.13;4942146;29;20462;-89
2022/03/21 09:12:20;;;;;;;38.27;17.70;;;;;;;6.84;85.74;103002.59;4937540;29;20039;-88
2022/03/21 09:14:45;;;;;;;39.10;18.23;;;;;;;6.98;85.28;102998.28;4937851;29;20080;-91
2022/03/21 09:17:11;;;;;;;36.40;15.70;;;;;;;7.15;84.07;103003.47;4935927;29;20106;-91
2022/03/21 09:19:36;;;;;;;34.43;14.97;;;;;;;7.28;82.11;103003.69;4936562;29;20020;-87
2022/03/21 09:22:02;;;;;;;30.20;14.70;;;;;;;7.50;79.96;103001.97;4936333;29;20070;-84
2022/03/21 09:24:28;;;;;;;31.80;15.40;;;;;;;7.76;77.72;102995.31;4933096;29;20291;-87
2022/03/21 09:26:53;;;;;;;28.95;13.43;;;;;;;7.87;76.23;102997.53;4933207;29;20038;-89
2022/03/21 09:29:19;;;;;;;30.87;13.30;;;;;;;8.03;75.51;102999.13;4945611;29;20027;-87
2022/03/21 09:31:47;;;;;;;28.15;13.13;;;;;;;8.11;75.83;102997.38;4943183;29;20035;-89
2022/03/21 09:34:13;;;;;;;29.17;13.50;;;;;;;8.22;74.32;102998.75;4944893;29;20106;-89
2022/03/21 09:36:39;;;;;;;36.58;15.52;;;;;;;8.36;73.34;102995.19;4951131;29;20020;-87
2022/03/21 09:39:05;;;;;;;28.85;13.68;;;;;;;8.45;72.96;102990.56;4949364;29;20233;-86
2022/03/21 09:41:31;;;;;;;29.55;14.00;;;;;;;8.47;73.96;102983.19;4937738;29;20109;-87
2022/03/21 09:44:00;;;;;;;23.97;12.13;;;;;;;8.47;72.17;102989.38;4936212;29;20476;-88
2022/03/21 09:46:25;;;;;;;26.90;12.70;;;;;;;8.67;71.15;102994.09;4932726;29;20456;-88
2022/03/21 09:48:53;;;;;;;30.23;13.07;;;;;;;8.76;71.40;102994.81;4935568;29;20038;-88
2022/03/21 09:51:24;;;;;;;28.77;13.33;;;;;;;8.90;70.30;102985.88;4935706;29;20114;-90
2022/03/21 09:53:53;;;;;;;30.03;13.43;;;;;;;9.00;70.20;102984.69;4935670;29;20326;-90
2022/03/21 09:56:19;;;;;;;26.42;13.10;;;;;;;9.07;69.16;102983.72;4938649;29;20040;-89
2022/03/21 09:58:45;;;;;;;27.30;13.25;;;;;;;9.24;68.94;102983.41;4936975;29;20031;-90
2022/03/21 10:01:12;;;;;;;29.63;12.73;;;;;;;9.24;69.37;102986.94;4937592;29;20027;-90
2022/03/21 10:03:38;;;;;;;26.30;13.53;;;;;;;9.26;69.30;102989.41;4937261;29;20031;-89
2022/03/21 10:06:29;;;;;;;24.58;12.95;;;;;;;9.30;70.60;102976.47;4942815;29;20071;-88
2022/03/21 10:09:14;;;;;;;29.98;13.50;;;;;;;9.39;68.68;102978.81;4951515;29;20066;-90
2022/03/21 10:11:51;;;;;;;26.27;12.93;;;;;;;9.46;68.82;102978.00;4939195;29;20043;-87
2022/03/21 10:14:48;;;;;;;27.95;12.95;;;;;;;9.52;70.34;102971.88;5219422;23;20158;-83
2022/03/21 10:17:31;;;;;;;29.67;14.25;;;;;;;9.56;69.81;102973.13;4933738;29;20075;-86
2022/03/21 10:26:42;;;;;;;25.35;13.05;;;;;;;10.12;65.64;102972.09;4937990;29;20054;-82
2022/03/21 10:29:12;;;;;;;29.37;12.60;;;;;;;10.25;64.71;102975.81;4953373;29;20039;-82
2022/03/21 10:31:50;;;;;;;29.70;13.43;;;;;;;10.39;64.49;102974.88;4942701;28;20682;-81
2022/03/21 10:34:18;;;;;;;32.40;13.15;;;;;;;10.61;63.70;102966.63;4933842;29;20841;-84
2022/03/21 10:37:07;;;;;;;24.65;12.50;;;;;;;10.75;64.44;102978.19;4956527;29;20031;-82
2022/03/21 10:39:35;;;;;;;24.52;12.25;;;;;;;10.92;62.75;102975.94;4964167;29;20364;-85
2022/03/21 10:42:03;;;;;;;25.80;13.57;;;;;;;11.03;62.89;102971.78;4966310;29;20047;-85
2022/03/21 10:44:29;;;;;;;24.63;13.00;;;;;;;11.02;62.56;102973.63;4947563;29;20035;-85
2022/03/21 10:46:59;;;;;;;25.75;13.00;;;;;;;11.05;62.20;102964.34;4949947;29;20027;-84
2022/03/21 10:49:33;;;;;;;27.73;13.77;;;;;;;11.12;64.35;102964.34;4971251;28;20035;-85
2022/03/21 10:52:00;;;;;;;28.60;13.10;;;;;;;11.23;61.56;102960.22;4953361;29;20027;-84
2022/03/21 10:54:54;;;;;;;32.88;14.07;;;;;;;11.34;63.91;102963.03;4956564;28;20019;-86
2022/03/21 10:57:31;;;;;;;27.42;13.57;;;;;;;11.57;61.28;102959.06;4952704;28;20044;-85
2022/03/21 11:00:13;;;;;;;28.83;13.63;;;;;;;11.77;61.06;102959.00;4950196;28;20095;-86
2022/03/21 11:03:09;;;;;;;34.80;14.23;;;;;;;11.96;60.72;102959.91;4960889;28;20412;-87
2022/03/21 11:05:39;;;;;;;27.10;13.57;;;;;;;12.14;59.25;102947.66;4948189;29;20024;-86
2022/03/21 11:08:07;;;;;;;28.58;14.18;;;;;;;12.19;58.37;102945.16;4954149;28;20058;-85
2022/03/21 11:10:32;;;;;;;34.28;16.23;;;;;;;12.38;58.34;102951.41;4957742;28;20030;-84
2022/03/21 11:13:01;;;;;;;27.33;14.87;;;;;;;12.52;57.53;102944.09;4958353;29;20054;-84
2022/03/21 11:15:30;;;;;;;29.15;14.50;;;;;;;12.66;57.59;102943.97;4954617;29;20020;-87
2022/03/21 11:17:55;;;;;;;34.42;14.30;;;;;;;12.79;58.92;102945.72;4918098;29;20566;-85
2022/03/21 11:20:22;;;;;;;27.80;13.57;;;;;;;12.94;56.67;102945.38;4947730;28;20035;-84
2022/03/21 11:22:53;;;;;;;27.65;13.27;;;;;;;13.11;56.95;102943.75;4936102;29;20023;-84
2022/03/21 11:25:21;;;;;;;29.80;14.20;;;;;;;13.28;56.98;102946.66;4938439;29;20490;-84
2022/03/21 11:27:49;;;;;;;30.05;14.57;;;;;;;13.43;55.82;102938.25;4955083;28;20111;-84
2022/03/21 11:30:18;;;;;;;28.42;14.02;;;;;;;13.52;55.45;102938.78;4950915;29;20054;-84
2022/03/21 11:33:14;;;;;;;26.73;14.10;;;;;;;13.63;57.28;102946.09;4952287;29;20698;-84
2022/03/21 11:35:49;;;;;;;33.10;15.60;;;;;;;13.74;54.93;102939.09;4923496;29;20681;-84
2022/03/21 11:38:21;;;;;;;26.87;15.27;;;;;;;13.95;54.41;102936.16;4954228;28;20475;-84
2022/03/21 11:40:47;;;;;;;21.10;12.57;;;;;;;14.07;53.06;102929.72;4938970;29;20345;-84
2022/03/21 11:43:16;;;;;;;27.00;13.57;;;;;;;14.18;52.93;102940.78;4946101;29;20035;-83
2022/03/21 11:45:43;;;;;;;33.83;13.80;;;;;;;14.24;53.37;102937.19;4942523;29;20051;-83
2022/03/21 11:48:23;;;;;;;21.63;14.35;;;;;;;14.28;54.84;102937.53;4953143;28;20056;-84
2022/03/21 11:51:10;;;;;;;28.38;13.85;;;;;;;14.45;53.08;102934.97;4942705;29;20030;-84
2022/03/21 11:53:44;;;;;;;29.48;15.52;;;;;;;14.48;52.53;102938.03;4942142;29;20039;-84
2022/03/21 11:56:15;;;;;;;30.10;14.10;;;;;;;14.56;52.27;102931.47;4940095;28;20106;-83
2022/03/21 11:58:40;;;;;;;29.95;15.20;;;;;;;14.65;51.90;102931.97;4940289;29;21911;-83
2022/03/21 12:01:28;;;;;;;26.03;14.60;;;;;;;14.83;52.74;102920.25;4942585;29;20539;-83
2022/03/21 12:03:54;;;;;;;29.98;14.35;;;;;;;14.98;51.49;102919.78;4944585;28;20062;-82
2022/03/21 12:06:19;;;;;;;30.73;14.50;;;;;;;15.03;50.55;102909.09;4943850;29;20034;-85
2022/03/21 12:08:48;;;;;;;25.13;13.50;;;;;;;15.16;51.21;102913.38;4943974;28;20023;-86
2022/03/21 12:11:38;;;;;;;28.55;13.15;;;;;;;15.33;52.29;102910.78;4946528;28;20035;-86
2022/03/21 12:14:36;;;;;;;32.25;14.45;;;;;;;15.49;50.66;102911.06;4955611;28;20093;-86
2022/03/21 12:17:01;;;;;;;29.20;13.02;;;;;;;15.54;49.29;102903.88;4947196;28;20039;-86
2022/03/21 12:19:45;;;;;;;32.00;14.40;;;;;;;15.60;49.57;102902.94;4946285;28;20031;-86
2022/03/21 12:22:28;;;;;;;29.03;13.33;;;;;;;15.70;50.18;102899.59;4944857;28;20145;-86
2022/03/21 12:27:31;;;;;;;30.02;13.40;;;;;;;15.85;48.62;102907.22;4933792;23;20098;-84
2022/03/21 12:30:29;;;;;;;26.38;13.07;;;;;;;16.01;50.60;102902.06;4919430;29;20480;-83
2022/03/21 12:33:09;;;;;;;29.52;14.00;;;;;;;16.15;48.58;102903.38;4922219;29;20036;-83
2022/03/21 12:35:44;;;;;;;24.13;13.00;;;;;;;16.27;48.52;102897.06;4929292;23;20059;-83
2022/03/21 12:38:25;;;;;;;27.88;13.65;;;;;;;16.40;48.51;102901.34;4921044;29;20084;-83
2022/03/21 12:40:58;;;;;;;23.85;13.73;;;;;;;16.45;47.31;102880.56;4911900;29;20040;-83
2022/03/21 12:43:30;;;;;;;26.75;13.77;;;;;;;16.55;47.60;102893.44;4892326;29;20123;-83
2022/03/21 12:46:06;;;;;;;27.67;13.45;;;;;;;16.63;47.11;102889.50;4914876;29;20024;-83
2022/03/21 12:48:34;;;;;;;27.33;13.47;;;;;;;16.58;47.12;102886.72;4908687;29;20495;-83
2022/03/21 12:51:00;;;;;;;24.47;12.53;;;;;;;16.65;46.74;102890.91;4913540;29;20292;-84
2022/03/21 12:53:39;;;;;;;23.73;11.68;;;;;;;16.73;46.92;102889.66;4915615;29;20205;-83
2022/03/21 12:56:08;;;;;;;18.23;11.93;;;;;;;16.71;45.38;102880.97;4904816;29;20059;-83
2022/03/21 12:58:34;;;;;;;19.38;10.93;;;;;;;16.73;46.05;102886.13;4925989;29;20070;-83
2022/03/21 13:01:03;;;;;;;25.42;11.65;;;;;;;16.94;45.69;102885.31;4919096;29;20445;-83
2022/03/21 13:03:29;;;;;;;31.35;12.27;;;;;;;17.01;45.48;102879.75;4907467;29;21895;-83
2022/03/21 13:11:36;;;;;;;26.20;13.43;;;;;;;16.84;44.92;102870.84;4922256;29;20059;-83
2022/03/21 13:14:05;;;;;;;24.67;13.20;;;;;;;16.96;45.96;102879.72;4900044;29;20028;-83
2022/03/21 13:16:38;;;;;;;23.67;12.77;;;;;;;17.00;45.38;102880.81;4914471;29;20387;-82
2022/03/21 13:19:06;;;;;;;25.75;14.25;;;;;;;17.00;45.29;102880.00;4935047;29;20028;-83
2022/03/21 13:21:35;;;;;;;21.50;12.90;;;;;;;16.98;45.12;102874.84;4930653;29;20428;-84
2022/03/21 13:24:02;;;;;;;22.77;11.48;;;;;;;17.16;46.58;102868.28;4895635;29;20032;-85
2022/03/21 13:26:27;;;;;;;22.02;12.50;;;;;;;17.37;45.00;102877.47;4913655;29;20028;-83
2022/03/21 13:29:04;;;;;;;23.60;12.70;;;;;;;17.54;45.44;102871.97;4914085;29;20525;-83
2022/03/21 13:31:29;;;;;;;22.10;12.25;;;;;;;17.62;44.05;102878.81;4916921;29;20027;-83